Richmond, VA (23255)

11:33 PM EDT on April 27, 2017 (GMT -0400)
Fulton | | Change Station

Elev 44 ft 37.52 °N, 77.39 °W | Updated 13 seconds ago

Overcast
Overcast
73.2 °F
Feels Like 76 °F
N
0.0
Wind Variable Wind from ENE

Today
High -- | Low -- °F
--% Chance of Precip.
Yesterday
High -- | Low -- °F
Precip. -- in
Pressure 29.89 in
Visibility 10.0 miles
Clouds Scattered Clouds 5000 ft
Mostly Cloudy 14000 ft
Overcast 30000 ft
Heat Index 76 °F
Dew Point 61 °F
Humidity 66%
Rainfall 0.76 in
Snow Depth Not available.
6:18 AM 7:56 PM
Waxing Crescent, 4% visible
METAR KRIC 280254Z 21010KT 10SM SCT050 BKN140 OVC300 23/15 A2988 RMK AO2 SLP121 T02280150 51018
Pressure 29.89 in
Visibility 10.0 miles
Clouds Scattered Clouds 5000 ft
Mostly Cloudy 14000 ft
Overcast 30000 ft
Heat Index 76 °F
Dew Point 61 °F
Humidity 66%
Rainfall 0.76 in
Snow Depth Not available.
6:18 AM 7:56 PM
Waxing Crescent, 4% visible
METAR KRIC 280254Z 21010KT 10SM SCT050 BKN140 OVC300 23/15 A2988 RMK AO2 SLP121 T02280150 51018

Get Severe Weather Alerts

Thanks for signing up!

Be on the lookout for a verification email in your inbox.

You'll start receiving the daily forecast at 8 AM.

×

10-Day Weather Forecast

Almanac

Astronomy

Apr. 27, 2017 Rise Set
Actual Time
Civil Twilight
Nautical Twilight
Astronomical Twilight
Moon
Length of Visible Light
Length of Day
Tomorrow will be .
, % of the Moon is Illuminated

Today's Extremes

State Highs State Lows

Community

WunderPhotos

WunderBlog® & News

Nearby

Air Quality

  Air Quality AQ Index Pollutant
Not available.

Snow Depth

Station Depth Elevation

Earthquake Activity

City Distance Mag. Time & Date
Minimum magnitude displayed is 2.5.

Coastal Water Temperatures

Place Temperature

Stations

Nearby Weather Stations

Station Location Temp. Windchill Dew Point Humidity Wind Precip. Elev Updated Type
                   

Watches & Warnings

There are currently no watches in effect.